Time;durP1;ratioP1;P1;durP2;ratioP2;P2;SDS_P1;SDS_P2;PMS_P1;PMS_P2;Temp;Humidity;BMP_temperature;BMP_pressure;BME280_temperature;BME280_humidity;BME280_pressure;Samples;Min_cycle;Max_cycle;Signal;HPM_P1;HPM_P2
2022/04/13 00:00:30;;;;;;;0.82;0.70;;;18.70;45.10;17.60;100767.00;;;;6188468;23;20083;-70
2022/04/13 00:03:16;;;;;;;2.20;0.68;;;18.70;45.10;17.60;100761.00;;;;6211085;23;20091;-71
2022/04/13 00:06:02;;;;;;;0.80;0.70;;;18.70;45.10;17.60;100763.00;;;;6210655;23;20330;-71
2022/04/13 00:08:50;;;;;;;1.23;0.70;;;18.70;45.10;17.60;100768.00;;;;6209435;23;20016;-71
2022/04/13 00:11:36;;;;;;;1.60;0.90;;;18.70;45.10;17.60;100767.00;;;;6210119;23;20066;-71
2022/04/13 00:14:23;;;;;;;1.73;0.65;;;18.70;45.10;17.60;100762.00;;;;6208566;23;20090;-71
2022/04/13 00:17:09;;;;;;;1.33;0.90;;;18.70;45.10;17.60;100767.00;;;;6210753;23;20016;-71
2022/04/13 00:19:55;;;;;;;1.70;0.90;;;18.70;45.10;17.60;100756.00;;;;6210181;23;20039;-71
2022/04/13 00:22:41;;;;;;;2.03;0.68;;;18.70;45.10;17.70;100766.00;;;;6208050;23;20351;-71
2022/04/13 00:25:28;;;;;;;1.20;0.60;;;18.70;45.10;17.60;100761.00;;;;6210153;23;20024;-71
2022/04/13 00:28:14;;;;;;;1.05;0.63;;;18.70;45.20;17.60;100768.00;;;;6210947;23;20092;-71
2022/04/13 00:31:00;;;;;;;1.67;1.02;;;18.70;45.10;17.60;100765.00;;;;6210056;23;20086;-71
2022/04/13 00:33:46;;;;;;;0.80;0.70;;;18.70;45.10;17.70;100766.00;;;;6211661;23;20051;-71
2022/04/13 00:36:32;;;;;;;1.17;0.80;;;18.70;45.10;17.60;100763.00;;;;6210189;23;20044;-71
2022/04/13 00:39:18;;;;;;;2.78;0.70;;;18.70;45.10;17.60;100763.00;;;;6210603;23;20020;-71
2022/04/13 00:42:06;;;;;;;2.22;0.80;;;18.70;45.10;17.60;100762.00;;;;6209928;23;20028;-71
2022/04/13 00:44:52;;;;;;;1.15;0.95;;;18.70;45.20;17.60;100758.00;;;;6210184;23;20389;-71
2022/04/13 00:47:40;;;;;;;2.33;0.90;;;18.70;45.10;17.60;100766.00;;;;6210267;23;20019;-71
2022/04/13 00:50:26;;;;;;;;;;;18.70;45.20;17.60;100765.00;;;;6211344;23;20012;-70
2022/04/13 00:53:13;;;;;;;1.75;0.90;;;18.70;45.10;17.60;100770.00;;;;6210807;23;19922;-71
2022/04/13 00:55:59;;;;;;;1.67;0.97;;;18.70;45.10;17.60;100778.00;;;;6187907;23;20017;-71
2022/04/13 00:58:45;;;;;;;1.48;0.80;;;18.70;45.10;17.60;100783.00;;;;6210478;23;20434;-71
2022/04/13 01:01:31;;;;;;;1.83;1.08;;;18.80;45.10;17.60;100783.00;;;;6168859;23;20094;-71
2022/04/13 01:04:17;;;;;;;0.60;0.55;;;18.70;45.20;17.60;100790.00;;;;6208985;23;20426;-71
2022/04/13 01:07:07;;;;;;;2.58;0.88;;;18.70;45.20;17.60;100792.00;;;;6208534;23;20465;-71
2022/04/13 01:09:53;;;;;;;1.48;0.85;;;18.70;45.30;17.60;100793.00;;;;6210147;23;20023;-71
2022/04/13 01:12:39;;;;;;;2.05;0.73;;;18.70;45.20;17.60;100790.00;;;;6207862;23;20017;-71
2022/04/13 01:15:25;;;;;;;0.80;0.80;;;18.70;45.30;17.60;100793.00;;;;6211563;23;20024;-71
2022/04/13 01:18:13;;;;;;;1.38;0.70;;;18.70;45.30;17.60;100790.00;;;;6213297;23;20028;-71
2022/04/13 01:21:00;;;;;;;1.52;0.95;;;18.70;45.30;17.70;100797.00;;;;6211510;23;20025;-71
2022/04/13 01:23:46;;;;;;;0.98;0.90;;;18.70;45.30;17.60;100795.00;;;;6212369;23;20528;-71
2022/04/13 01:26:32;;;;;;;0.88;0.73;;;18.70;45.30;17.70;100799.00;;;;6211933;23;20402;-71
2022/04/13 01:29:18;;;;;;;2.60;1.02;;;18.70;45.30;17.70;100797.00;;;;6211614;23;20019;-71
2022/04/13 01:32:05;;;;;;;1.50;0.82;;;18.70;45.30;17.70;100795.00;;;;6212337;23;20021;-71
2022/04/13 01:34:52;;;;;;;1.27;1.00;;;18.70;45.40;17.60;100796.00;;;;6210625;23;20021;-71
2022/04/13 01:37:38;;;;;;;0.93;0.68;;;18.70;45.40;17.70;100811.00;;;;6210186;23;20024;-71
2022/04/13 01:40:24;;;;;;;1.70;1.00;;;18.70;45.40;17.70;100805.00;;;;6211922;23;20498;-71
2022/04/13 01:43:10;;;;;;;1.90;1.10;;;18.70;45.40;17.70;100806.00;;;;6212456;23;20025;-71
2022/04/13 01:45:57;;;;;;;1.55;0.88;;;18.70;45.40;17.70;100812.00;;;;6209509;23;20017;-71
2022/04/13 01:48:43;;;;;;;3.17;0.90;;;18.70;45.40;17.60;100810.00;;;;6212220;23;20016;-71
2022/04/13 01:51:29;;;;;;;1.33;0.90;;;18.70;45.40;17.70;100818.00;;;;6189851;23;20012;-71
2022/04/13 01:54:15;;;;;;;2.10;0.90;;;18.70;45.50;17.70;100816.00;;;;6211369;23;20517;-71
2022/04/13 01:57:01;;;;;;;1.58;0.90;;;18.70;45.40;17.70;100811.00;;;;6212078;23;20017;-71
2022/04/13 01:59:47;;;;;;;1.30;0.90;;;18.70;45.50;17.70;100821.00;;;;6209728;23;20017;-71
2022/04/13 02:02:33;;;;;;;1.17;0.90;;;18.70;45.40;17.70;100818.00;;;;6212065;23;20438;-71
2022/04/13 02:05:20;;;;;;;1.05;0.80;;;18.80;45.50;17.70;100832.00;;;;6210536;23;20342;-71
2022/04/13 02:08:07;;;;;;;1.38;1.00;;;18.70;45.40;17.70;100820.00;;;;6210129;23;20453;-71
2022/04/13 02:10:53;;;;;;;0.88;0.70;;;18.70;45.40;17.70;100822.00;;;;6209566;23;20020;-71
2022/04/13 02:13:39;;;;;;;1.27;0.85;;;18.70;45.40;17.70;100826.00;;;;6211678;23;20024;-71
2022/04/13 02:16:25;;;;;;;2.08;0.85;;;18.80;45.50;17.70;100836.00;;;;6211430;23;20091;-71
2022/04/13 02:19:12;;;;;;;2.13;0.77;;;18.70;45.40;17.70;100832.00;;;;6211222;23;20024;-71
2022/04/13 02:21:58;;;;;;;1.23;0.80;;;18.70;45.50;17.70;100833.00;;;;6210112;23;20027;-71
2022/04/13 02:24:44;;;;;;;1.23;0.73;;;18.70;45.50;17.70;100845.00;;;;6211749;23;20016;-71
2022/04/13 02:27:30;;;;;;;1.02;0.77;;;18.70;45.50;17.70;100838.00;;;;6211456;23;20106;-71
2022/04/13 02:30:16;;;;;;;1.70;1.17;;;18.60;45.40;17.70;100843.00;;;;6210887;23;20017;-71
2022/04/13 02:33:02;;;;;;;2.20;1.10;;;18.90;45.60;17.70;100826.00;;;;6210833;23;20051;-71
2022/04/13 02:35:48;;;;;;;1.17;0.90;;;18.70;45.50;17.70;100824.00;;;;6211148;23;20020;-71
2022/04/13 02:38:34;;;;;;;1.48;1.00;;;18.70;45.50;17.70;100822.00;;;;6212019;23;20020;-71
2022/04/13 02:41:20;;;;;;;0.73;0.73;;;18.70;45.50;17.70;100828.00;;;;6211074;23;20020;-71
2022/04/13 02:44:07;;;;;;;0.70;0.70;;;18.70;45.50;17.70;100838.00;;;;6210917;23;20504;-71
2022/04/13 02:46:53;;;;;;;1.40;1.00;;;18.70;45.50;17.70;100846.00;;;;6212481;23;20078;-71
2022/04/13 02:49:39;;;;;;;1.35;0.90;;;18.70;45.60;17.70;100838.00;;;;6211011;23;20017;-71
2022/04/13 02:52:28;;;;;;;1.42;1.10;;;18.70;45.60;17.70;100845.00;;;;6211149;23;20023;-71
2022/04/13 02:55:14;;;;;;;2.08;1.13;;;18.70;45.60;17.70;100848.00;;;;6208532;23;20347;-71
2022/04/13 02:58:00;;;;;;;1.88;1.15;;;18.70;45.60;17.70;100844.00;;;;6211649;23;20020;-71
2022/04/13 03:00:47;;;;;;;1.95;0.82;;;18.70;45.60;17.70;100855.00;;;;6210300;23;20019;-71
2022/04/13 03:03:33;;;;;;;1.40;0.93;;;18.70;45.60;17.70;100849.00;;;;6210798;23;20267;-71
2022/04/13 03:06:19;;;;;;;2.28;1.10;;;18.80;45.70;17.70;100844.00;;;;6209159;23;20023;-71
2022/04/13 03:09:05;;;;;;;1.88;1.15;;;18.70;45.70;17.70;100856.00;;;;6212129;23;20027;-71
2022/04/13 03:11:51;;;;;;;1.75;1.08;;;18.70;45.70;17.70;100852.00;;;;6210841;23;20386;-71
2022/04/13 03:14:38;;;;;;;1.60;0.60;;;18.70;45.70;17.70;100854.00;;;;6209279;23;20016;-71
2022/04/13 03:17:24;;;;;;;1.17;1.00;;;18.70;45.70;17.70;100857.00;;;;6189183;23;20042;-71
2022/04/13 03:20:11;;;;;;;1.33;0.90;;;18.70;45.70;17.70;100865.00;;;;6209873;23;20043;-71
2022/04/13 03:22:57;;;;;;;1.05;0.80;;;18.70;45.80;17.70;100860.00;;;;6212335;23;20012;-71
2022/04/13 03:25:43;;;;;;;1.20;0.90;;;18.60;45.70;17.60;100858.00;;;;6208291;23;20009;-71
2022/04/13 03:28:29;;;;;;;1.13;0.90;;;18.70;45.80;17.70;100862.00;;;;6210772;23;20306;-71
2022/04/13 03:31:16;;;;;;;1.42;0.93;;;18.70;45.80;17.70;100857.00;;;;6210436;23;20074;-71
2022/04/13 03:34:02;;;;;;;1.23;0.88;;;18.70;45.80;17.60;100862.00;;;;6209144;23;20040;-71
2022/04/13 03:36:49;;;;;;;1.90;1.00;;;18.60;45.70;17.60;100863.00;;;;6208727;23;20016;-71
2022/04/13 03:39:35;;;;;;;1.05;0.98;;;18.60;45.80;17.60;100871.00;;;;6210321;23;20023;-71
2022/04/13 03:42:21;;;;;;;1.55;1.00;;;18.70;45.90;17.60;100868.00;;;;6210597;23;20024;-71
2022/04/13 03:45:11;;;;;;;1.67;1.02;;;18.60;45.80;17.60;100867.00;;;;6208097;23;20343;-71
2022/04/13 03:47:57;;;;;;;1.83;1.13;;;18.60;45.90;17.60;100863.00;;;;6189157;23;20103;-71
2022/04/13 03:50:43;;;;;;;1.23;1.02;;;18.60;45.80;17.60;100866.00;;;;6209898;23;20319;-71
2022/04/13 03:53:30;;;;;;;4.03;1.15;;;18.60;45.80;17.70;100868.00;;;;6210695;23;20020;-71
2022/04/13 03:56:16;;;;;;;2.38;1.27;;;18.60;45.90;17.60;100865.00;;;;6211099;23;20099;-71
2022/04/13 03:59:02;;;;;;;1.25;1.10;;;18.60;45.90;17.60;100872.00;;;;6211303;23;20020;-71
2022/04/13 04:01:48;;;;;;;1.45;1.00;;;18.60;45.90;17.60;100877.00;;;;6210876;23;20039;-71
2022/04/13 04:04:34;;;;;;;1.38;1.00;;;18.60;45.90;17.60;100872.00;;;;6211470;23;20017;-71
2022/04/13 04:07:20;;;;;;;2.08;1.45;;;18.60;45.90;17.60;100876.00;;;;6208583;23;20012;-71
2022/04/13 04:10:08;;;;;;;1.92;1.35;;;18.60;45.90;17.60;100881.00;;;;6210191;23;20062;-71
2022/04/13 04:12:55;;;;;;;1.30;1.00;;;18.60;46.00;17.60;100883.00;;;;6212435;23;20273;-71
2022/04/13 04:15:41;;;;;;;2.58;1.10;;;18.50;45.90;17.60;100896.00;;;;6210455;23;20082;-71
2022/04/13 04:18:27;;;;;;;1.05;0.95;;;18.60;46.00;17.60;100898.00;;;;6210572;23;20341;-71
2022/04/13 04:21:14;;;;;;;2.10;1.30;;;18.60;46.00;17.60;100898.00;;;;6208099;23;20020;-71
2022/04/13 04:24:00;;;;;;;3.42;1.10;;;18.70;46.10;17.60;100899.00;;;;6210809;23;20020;-71
2022/04/13 04:26:46;;;;;;;2.22;1.10;;;18.60;46.00;17.60;100902.00;;;;6210332;23;20012;-71
2022/04/13 04:29:32;;;;;;;1.60;1.30;;;18.60;46.00;17.60;100908.00;;;;6210416;23;20020;-71
2022/04/13 04:32:18;;;;;;;2.92;1.25;;;18.60;46.00;17.60;100906.00;;;;6209893;23;20103;-71
2022/04/13 04:35:06;;;;;;;3.50;1.30;;;18.60;46.00;17.60;100917.00;;;;6207952;23;20020;-71
2022/04/13 04:37:52;;;;;;;1.10;0.85;;;18.60;46.00;17.60;100916.00;;;;6211477;23;20048;-71
2022/04/13 04:40:38;;;;;;;1.65;1.30;;;18.50;45.90;17.60;100917.00;;;;6209415;23;20021;-71
2022/04/13 04:43:24;;;;;;;1.15;0.95;;;18.60;46.00;17.60;100923.00;;;;6210315;23;20017;-71
2022/04/13 04:46:12;;;;;;;1.60;1.10;;;18.60;46.00;17.60;100925.00;;;;6209701;23;20023;-71
2022/04/13 04:48:58;;;;;;;3.28;1.42;;;18.60;46.00;17.60;100921.00;;;;6210003;23;20017;-71
2022/04/13 04:51:44;;;;;;;2.80;1.20;;;18.50;46.00;17.60;100930.00;;;;6211926;23;20023;-71
2022/04/13 04:54:30;;;;;;;1.63;1.30;;;18.50;46.00;17.60;100927.00;;;;6208576;23;20331;-71
2022/04/13 04:57:16;;;;;;;3.60;1.20;;;18.50;46.00;17.60;100932.00;;;;6212379;23;20016;-71
2022/04/13 05:00:05;;;;;;;1.42;1.00;;;18.50;46.00;17.60;100926.00;;;;6210971;23;20331;-71
2022/04/13 05:02:52;;;;;;;2.50;1.30;;;18.50;46.10;17.60;100934.00;;;;6210678;23;20389;-71
2022/04/13 05:05:41;;;;;;;1.30;1.20;;;18.50;46.10;17.60;100938.00;;;;6168182;23;20013;-71
2022/04/13 05:08:27;;;;;;;1.35;1.10;;;18.50;46.10;17.60;100948.00;;;;6212397;23;20343;-71
2022/04/13 05:11:13;;;;;;;2.38;1.40;;;18.50;46.10;17.60;100944.00;;;;6211278;23;20012;-71
2022/04/13 05:13:59;;;;;;;1.73;1.10;;;18.50;46.10;17.60;100953.00;;;;6212029;23;20370;-71
2022/04/13 05:16:45;;;;;;;1.55;1.27;;;18.50;46.10;17.60;100962.00;;;;6211736;23;20025;-71
2022/04/13 05:19:33;;;;;;;2.00;1.23;;;18.50;46.20;17.60;100948.00;;;;6212117;23;20051;-71
2022/04/13 05:22:19;;;;;;;;;;;18.50;46.20;17.50;100958.00;;;;6212532;23;20382;-71
2022/04/13 05:25:14;;;;;;;1.70;1.10;;;18.50;46.00;17.50;100952.00;;;;6213030;23;19908;-71
2022/04/13 05:28:00;;;;;;;1.58;1.30;;;18.50;46.10;17.60;100959.00;;;;6192274;23;20346;-71
2022/04/13 05:30:46;;;;;;;1.58;1.25;;;18.50;46.10;17.50;100953.00;;;;6210122;23;20016;-71
2022/04/13 05:33:32;;;;;;;1.40;1.20;;;18.50;46.20;17.50;100965.00;;;;6208872;23;20016;-71
2022/04/13 05:36:18;;;;;;;3.63;1.48;;;18.60;46.30;17.50;100959.00;;;;6209822;23;20339;-71
2022/04/13 05:39:04;;;;;;;2.22;1.55;;;18.50;46.20;17.50;100963.00;;;;6209790;23;20070;-71
2022/04/13 05:41:51;;;;;;;1.45;1.35;;;18.50;46.30;17.50;100982.00;;;;6209126;23;20028;-71
2022/04/13 05:44:37;;;;;;;1.55;1.10;;;18.50;46.30;17.50;100988.00;;;;6210668;23;20024;-71
2022/04/13 05:47:23;;;;;;;2.05;1.40;;;18.50;46.30;17.50;100987.00;;;;6211897;23;20087;-71
2022/04/13 05:50:10;;;;;;;2.05;1.45;;;18.50;46.30;17.50;100982.00;;;;6211587;23;20016;-71
2022/04/13 05:52:56;;;;;;;1.75;1.40;;;18.40;46.30;17.50;100989.00;;;;6209356;23;20119;-71
2022/04/13 05:55:42;;;;;;;1.67;1.48;;;18.50;46.30;17.50;100986.00;;;;6210470;23;20016;-71
2022/04/13 05:58:28;;;;;;;1.70;1.20;;;18.50;46.30;17.50;100990.00;;;;6211869;23;20403;-71
2022/04/13 06:01:14;;;;;;;2.03;1.40;;;18.50;46.30;17.50;100996.00;;;;6210961;23;20390;-71
2022/04/13 06:04:00;;;;;;;1.65;1.38;;;18.50;46.30;17.50;101001.00;;;;6211198;23;20020;-71
2022/04/13 06:06:46;;;;;;;1.73;1.60;;;18.50;46.40;17.60;100998.00;;;;6212033;23;20013;-71
2022/04/13 06:09:32;;;;;;;1.33;1.17;;;18.40;46.30;17.50;101005.00;;;;6208838;23;20395;-71
2022/04/13 06:12:24;;;;;;;2.47;1.33;;;18.50;46.40;17.50;101001.00;;;;6211405;23;20027;-71
2022/04/13 06:15:12;;;;;;;2.00;1.38;;;18.50;46.40;17.50;101011.00;;;;6210535;23;20016;-71
2022/04/13 06:17:59;;;;;;;1.58;1.27;;;18.50;46.40;17.50;101014.00;;;;6189298;23;20020;-71
2022/04/13 06:20:45;;;;;;;2.05;1.30;;;18.40;46.40;17.50;101014.00;;;;6208455;23;20211;-71
2022/04/13 06:23:31;;;;;;;1.95;1.38;;;18.40;46.40;17.50;101020.00;;;;6211356;23;20023;-71
2022/04/13 06:26:17;;;;;;;3.35;1.40;;;18.40;46.40;17.50;101014.00;;;;6211294;23;20382;-71
2022/04/13 06:29:04;;;;;;;1.48;1.35;;;18.50;46.40;17.50;101017.00;;;;6210904;23;20100;-71
2022/04/13 06:31:50;;;;;;;1.92;1.42;;;18.50;46.50;17.50;101025.00;;;;6211750;23;20027;-71
2022/04/13 06:34:37;;;;;;;2.33;1.60;;;18.30;46.40;17.50;101022.00;;;;6210837;23;20450;-71
2022/04/13 06:37:23;;;;;;;2.60;1.33;;;18.60;46.60;17.50;101024.00;;;;6211665;23;20500;-71
2022/04/13 06:40:09;;;;;;;2.05;1.20;;;18.50;46.50;17.50;101020.00;;;;6210647;23;20024;-71
2022/04/13 06:42:55;;;;;;;2.33;1.27;;;18.40;46.50;17.50;101026.00;;;;6211346;23;20027;-71
2022/04/13 06:45:41;;;;;;;2.45;1.55;;;18.50;46.50;17.50;101029.00;;;;6208507;23;20079;-71
2022/04/13 06:48:27;;;;;;;2.05;1.33;;;18.50;46.50;17.50;101026.00;;;;6209582;23;20064;-71
2022/04/13 06:51:14;;;;;;;2.22;1.35;;;18.50;46.50;17.50;101033.00;;;;6210586;23;20012;-71
2022/04/13 06:54:00;;;;;;;4.18;1.42;;;18.50;46.50;17.50;101032.00;;;;6208746;23;20082;-71
2022/04/13 06:56:46;;;;;;;2.03;1.60;;;18.50;46.50;17.50;101040.00;;;;6209673;23;20024;-71
2022/04/13 06:59:32;;;;;;;1.92;1.23;;;18.50;46.60;17.50;101046.00;;;;6210730;23;20016;-71
2022/04/13 07:02:18;;;;;;;1.73;1.60;;;18.50;46.60;17.60;101053.00;;;;6210717;23;20023;-71
2022/04/13 07:05:05;;;;;;;1.85;1.27;;;18.50;46.60;17.50;101057.00;;;;6207650;23;20020;-71
2022/04/13 07:07:51;;;;;;;1.90;1.30;;;18.50;46.60;17.60;101068.00;;;;6212624;23;20091;-71
2022/04/13 07:10:37;;;;;;;1.88;1.17;;;18.50;46.60;17.50;101064.00;;;;6210445;23;20438;-71
2022/04/13 07:13:23;;;;;;;1.52;1.20;;;18.50;46.60;17.50;101071.00;;;;6180011;23;20095;-70
2022/04/13 07:16:09;;;;;;;1.77;1.38;;;18.50;46.60;17.60;101071.00;;;;6180779;23;20469;-71
2022/04/13 07:18:55;;;;;;;2.85;1.52;;;18.50;46.60;17.50;101073.00;;;;6181769;23;20016;-71
2022/04/13 07:21:41;;;;;;;1.50;1.30;;;18.60;46.60;17.60;101077.00;;;;6180558;23;20497;-70
2022/04/13 07:24:27;;;;;;;2.45;1.35;;;18.50;46.60;17.60;101077.00;;;;6180545;23;20023;-70
2022/04/13 07:27:14;;;;;;;1.70;1.50;;;18.60;46.70;17.60;101083.00;;;;6179580;23;20017;-70
2022/04/13 07:30:00;;;;;;;1.88;1.67;;;18.50;46.60;17.60;101079.00;;;;6180544;23;20506;-70
2022/04/13 07:32:47;;;;;;;2.30;1.50;;;18.50;46.60;17.60;101089.00;;;;6159350;23;20023;-71
2022/04/13 07:35:33;;;;;;;2.30;1.42;;;18.60;46.70;17.60;101079.00;;;;6178747;23;20048;-71
2022/04/13 07:38:19;;;;;;;2.47;1.30;;;18.60;46.70;17.60;101083.00;;;;6157921;23;20259;-70
2022/04/13 07:41:05;;;;;;;2.17;1.50;;;18.60;46.70;17.60;101079.00;;;;6180650;23;20506;-71
2022/04/13 07:43:51;;;;;;;2.03;1.70;;;18.60;46.70;17.60;101087.00;;;;6181093;23;20021;-71
2022/04/13 07:46:37;;;;;;;3.42;1.90;;;18.60;46.70;17.60;101083.00;;;;6180855;23;20017;-71
2022/04/13 07:49:23;;;;;;;1.95;1.50;;;18.60;46.70;17.60;101076.00;;;;6180239;23;20451;-71
2022/04/13 07:52:09;;;;;;;1.63;1.40;;;18.50;46.60;17.60;101087.00;;;;6180293;23;20035;-71
2022/04/13 07:54:55;;;;;;;2.55;1.65;;;18.60;46.70;17.60;101086.00;;;;6138611;23;20449;-71
2022/04/13 07:57:42;;;;;;;2.00;1.63;;;18.60;46.70;17.60;101088.00;;;;6159036;23;20017;-70
2022/04/13 08:00:28;;;;;;;2.78;1.90;;;18.70;46.70;17.60;101096.00;;;;6178190;23;20021;-71
2022/04/13 08:03:15;;;;;;;2.75;1.88;;;18.60;46.70;17.60;101099.00;;;;6179868;23;20052;-71
2022/04/13 08:06:02;;;;;;;1.55;1.30;;;18.60;46.70;17.60;101090.00;;;;6179135;23;20100;-71
2022/04/13 08:08:48;;;;;;;5.28;2.00;;;18.60;46.70;17.60;101096.00;;;;6180297;23;20086;-71
2022/04/13 08:11:34;;;;;;;2.78;1.80;;;18.50;46.70;17.60;101113.00;;;;6190489;23;20016;-70
2022/04/13 08:14:24;;;;;;;3.72;1.80;;;18.60;46.80;17.60;101109.00;;;;6207796;23;20039;-70
2022/04/13 08:17:10;;;;;;;2.17;1.67;;;18.60;46.80;17.60;101120.00;;;;6188278;23;20043;-70
2022/04/13 08:19:56;;;;;;;2.75;2.03;;;18.60;46.80;17.60;101123.00;;;;6209415;23;20021;-70
2022/04/13 08:22:43;;;;;;;5.00;2.38;;;18.60;46.80;17.60;101118.00;;;;6209342;23;20016;-71
2022/04/13 08:25:30;;;;;;;2.27;1.67;;;18.60;46.80;17.60;101115.00;;;;6187416;23;20021;-72
2022/04/13 08:28:16;;;;;;;3.15;2.10;;;18.60;46.80;17.60;101131.00;;;;6210015;23;20016;-71
2022/04/13 08:31:04;;;;;;;3.15;1.67;;;18.60;46.80;17.60;101124.00;;;;6209213;23;20354;-71
2022/04/13 08:33:50;;;;;;;;;;;18.60;46.80;17.60;101124.00;;;;6210524;23;20071;-71
2022/04/13 08:36:37;;;;;;;2.85;1.80;;;18.60;46.60;17.60;101130.00;;;;6210833;23;20242;-71
2022/04/13 08:39:23;;;;;;;3.33;2.00;;;18.70;46.80;17.60;101124.00;;;;6207625;23;20383;-71
2022/04/13 08:42:37;;;;;;;2.95;1.98;;;18.60;46.70;17.60;101134.00;;;;6209713;23;20016;-71
2022/04/13 08:45:25;;;;;;;3.85;2.00;;;18.60;46.90;17.60;101134.00;;;;6190621;23;20182;-71
2022/04/13 08:48:12;;;;;;;2.55;1.85;;;18.60;46.80;17.60;101137.00;;;;6209915;23;20463;-71
2022/04/13 08:51:00;;;;;;;4.38;2.08;;;18.60;46.90;17.60;101133.00;;;;6207501;23;20044;-71
2022/04/13 08:54:08;;;;;;;4.93;2.03;;;18.60;46.90;17.60;101142.00;;;;6208591;23;20029;-71
2022/04/13 08:56:55;;;;;;;2.00;1.52;;;18.60;46.90;17.60;101143.00;;;;6192621;23;20017;-71
2022/04/13 09:00:03;;;;;;;3.20;2.05;;;18.60;46.90;17.60;101155.00;;;;6207423;23;20016;-72
2022/04/13 09:03:22;;;;;;;2.35;1.60;;;18.60;47.00;17.60;101141.00;;;;6208998;23;20070;-71
2022/04/13 09:06:08;;;;;;;2.35;1.67;;;18.60;47.00;17.60;101151.00;;;;6208042;23;20020;-71
2022/04/13 09:09:00;;;;;;;3.33;2.00;;;18.60;47.00;17.60;101151.00;;;;6187891;23;20013;-71
2022/04/13 09:11:46;;;;;;;4.25;2.03;;;18.60;47.20;17.60;101162.00;;;;6167212;23;20028;-71
2022/04/13 09:14:32;;;;;;;3.55;1.90;;;18.60;47.20;17.60;101169.00;;;;6207894;23;20020;-71
2022/04/13 09:17:18;;;;;;;5.03;2.10;;;18.60;47.20;17.60;101158.00;;;;6187861;23;20008;-71
2022/04/13 09:20:05;;;;;;;4.55;2.00;;;18.70;47.20;17.60;101161.00;;;;6188625;23;20023;-71
2022/04/13 09:22:52;;;;;;;2.63;1.90;;;18.60;47.80;17.60;101164.00;;;;6211024;23;20099;-71
2022/04/13 09:25:38;;;;;;;3.88;1.80;;;18.60;47.10;17.60;101163.00;;;;6188075;23;20100;-71
2022/04/13 09:28:26;;;;;;;4.03;1.60;;;18.60;47.10;17.60;101157.00;;;;6168855;23;20024;-71
2022/04/13 09:31:12;;;;;;;4.38;1.85;;;18.70;47.10;17.60;101154.00;;;;6210434;23;20445;-72
2022/04/13 09:33:58;;;;;;;3.90;1.83;;;18.70;47.10;17.60;101159.00;;;;6211200;23;20016;-71
2022/04/13 09:36:44;;;;;;;3.53;1.85;;;18.70;47.10;17.60;101163.00;;;;6211602;23;20279;-72
2022/04/13 09:39:31;;;;;;;2.78;1.70;;;18.70;47.10;17.60;101163.00;;;;6189419;23;20562;-71
2022/04/13 09:42:17;;;;;;;2.55;1.77;;;18.70;47.10;17.60;101158.00;;;;6190053;23;20024;-71
2022/04/13 09:45:03;;;;;;;2.22;1.73;;;18.70;47.10;17.60;101164.00;;;;6210196;23;20071;-71
2022/04/13 09:47:49;;;;;;;2.47;1.52;;;18.70;47.10;17.60;101166.00;;;;6212304;23;20083;-71
2022/04/13 09:50:37;;;;;;;4.45;1.60;;;18.70;47.10;17.60;101165.00;;;;6210111;23;20431;-71
2022/04/13 09:53:23;;;;;;;2.47;1.55;;;18.70;47.00;17.60;101160.00;;;;6191147;23;20039;-71
2022/04/13 09:56:16;;;;;;;2.20;1.42;;;18.70;47.00;17.60;101157.00;;;;6211499;23;20021;-71
2022/04/13 09:59:03;;;;;;;4.22;1.63;;;18.70;47.00;17.60;101151.00;;;;6191289;23;20342;-71
2022/04/13 10:01:49;;;;;;;3.50;1.60;;;18.70;47.00;17.60;101154.00;;;;6188809;23;20028;-71
2022/04/13 10:04:36;;;;;;;4.53;1.67;;;18.70;47.00;17.60;101147.00;;;;6209867;23;20013;-70
2022/04/13 10:07:22;;;;;;;2.97;1.40;;;18.70;47.10;17.60;101152.00;;;;6209206;23;20017;-70
2022/04/13 10:10:25;;;;;;;3.13;1.58;;;18.80;47.10;17.60;101147.00;;;;6211592;23;20027;-70
2022/04/13 10:13:11;;;;;;;2.65;1.23;;;18.70;47.30;17.60;101152.00;;;;6210219;23;20020;-70
2022/04/13 10:16:05;;;;;;;4.15;1.33;;;18.70;47.10;17.60;101154.00;;;;6209996;23;20451;-70
2022/04/13 10:18:58;;;;;;;2.03;1.50;;;18.80;47.10;17.70;101156.00;;;;6187991;23;20075;-70
2022/04/13 10:21:50;;;;;;;4.18;1.83;;;18.80;47.10;17.70;101157.00;;;;6208274;23;20055;-71
2022/04/13 10:24:40;;;;;;;3.20;1.45;;;18.80;47.40;17.70;101161.00;;;;6211289;23;20048;-71
2022/04/13 10:27:27;;;;;;;2.17;1.60;;;18.80;47.30;17.70;101160.00;;;;6210372;23;20020;-70
2022/04/13 10:30:14;;;;;;;3.78;2.35;;;18.80;47.20;17.70;101150.00;;;;6210487;23;20017;-71
2022/04/13 10:33:09;;;;;;;2.47;1.27;;;18.80;47.20;17.70;101143.00;;;;6211616;23;20021;-71
2022/04/13 10:35:56;;;;;;;1.80;1.50;;;18.80;47.20;17.70;101158.00;;;;6188544;23;20020;-70
2022/04/13 10:38:44;;;;;;;4.82;2.25;;;18.80;47.40;17.70;101166.00;;;;6188816;23;20071;-71
2022/04/13 10:41:30;;;;;;;5.47;2.10;;;18.80;48.20;17.70;101166.00;;;;6209770;23;20020;-71
2022/04/13 10:44:29;;;;;;;3.28;1.70;;;18.80;48.10;17.70;101164.00;;;;6188212;23;20021;-71
2022/04/13 10:47:18;;;;;;;5.25;2.38;;;18.80;48.20;17.70;101166.00;;;;6174827;23;20403;-71
2022/04/13 10:50:04;;;;;;;2.10;1.65;;;18.70;48.80;17.70;101163.00;;;;6210998;23;20327;-71
2022/04/13 10:53:06;;;;;;;3.88;1.95;;;18.80;48.60;17.60;101164.00;;;;6190772;23;20012;-71
2022/04/13 10:56:00;;;;;;;6.40;2.97;;;18.80;48.80;17.70;101171.00;;;;6209332;23;20043;-71
2022/04/13 10:59:17;;;;;;;6.63;3.45;;;18.90;49.60;17.70;101164.00;;;;6190825;23;20016;-71
2022/04/13 11:02:17;;;;;;;5.63;3.08;;;18.90;49.80;17.70;101179.00;;;;6189836;23;20506;-71
2022/04/13 11:05:03;;;;;;;8.55;3.47;;;18.90;49.80;17.70;101166.00;;;;6190298;23;20016;-71
2022/04/13 11:08:23;;;;;;;4.70;2.72;;;18.90;49.90;17.70;101176.00;;;;6211556;23;20024;-70
2022/04/13 11:11:09;;;;;;;6.10;3.10;;;18.90;50.10;17.70;101174.00;;;;6207810;23;20020;-71
2022/04/13 11:13:55;;;;;;;4.65;2.83;;;18.90;50.00;17.70;101182.00;;;;6189734;23;20029;-71
2022/04/13 11:16:41;;;;;;;6.55;2.97;;;18.90;50.00;17.70;101187.00;;;;6209305;23;20386;-71
2022/04/13 11:19:27;;;;;;;4.40;2.80;;;18.90;50.00;17.70;101180.00;;;;6211498;23;20079;-71
2022/04/13 11:22:16;;;;;;;3.05;2.35;;;18.90;50.10;17.70;101176.00;;;;6210766;23;20024;-70
2022/04/13 11:25:03;;;;;;;4.70;3.08;;;18.90;50.20;17.70;101182.00;;;;6189385;23;20358;-71
2022/04/13 11:27:50;;;;;;;4.00;2.53;;;19.00;50.40;17.70;101178.00;;;;6211929;23;20020;-71
2022/04/13 11:31:06;;;;;;;4.07;2.15;;;19.00;50.10;17.80;101177.00;;;;6208769;23;20016;-71
2022/04/13 11:33:55;;;;;;;4.65;3.05;;;19.00;50.10;17.70;101176.00;;;;6209375;23;20015;-71
2022/04/13 11:36:50;;;;;;;4.75;2.10;;;19.00;49.90;17.70;101182.00;;;;6211714;23;20013;-68
2022/04/13 11:39:52;;;;;;;3.60;2.72;;;19.00;49.90;17.80;101191.00;;;;6209886;23;20013;-72
2022/04/13 11:42:42;;;;;;;5.88;3.35;;;19.00;50.30;17.70;101193.00;;;;6210674;23;20028;-71
2022/04/13 11:45:29;;;;;;;6.63;2.92;;;19.00;50.40;17.80;101196.00;;;;6210594;23;20040;-71
2022/04/13 11:48:34;;;;;;;7.03;2.85;;;19.10;50.50;17.80;101196.00;;;;6208773;23;20359;-70
2022/04/13 11:51:29;;;;;;;6.10;2.75;;;19.00;50.30;17.80;101195.00;;;;6208563;23;20016;-70
2022/04/13 11:54:15;;;;;;;5.70;2.50;;;19.10;50.30;17.80;101198.00;;;;6208989;23;20095;-70
2022/04/13 11:57:02;;;;;;;4.93;2.22;;;19.10;50.00;17.80;101198.00;;;;6210816;23;20064;-70
2022/04/13 11:59:49;;;;;;;2.67;1.90;;;19.10;49.90;17.80;101210.00;;;;6210571;23;20046;-70
2022/04/13 12:02:35;;;;;;;;;;;19.10;49.80;17.80;101206.00;;;;6169557;23;20017;-70
2022/04/13 12:05:22;;;;;;;3.70;2.20;;;19.10;49.50;17.80;101203.00;;;;6189354;23;19970;-70
2022/04/13 12:08:24;;;;;;;6.03;2.37;;;19.10;49.60;17.80;101207.00;;;;6188931;23;20513;-70
2022/04/13 12:11:16;;;;;;;4.30;1.90;;;19.10;49.80;17.80;101210.00;;;;6207257;23;20585;-70
2022/04/13 12:14:02;;;;;;;4.53;2.35;;;19.10;49.50;17.80;101205.00;;;;6207042;23;20346;-70
2022/04/13 12:16:48;;;;;;;5.47;1.98;;;19.10;49.40;17.80;101219.00;;;;6208322;23;20048;-70